Time;durP1;ratioP1;P1;durP2;ratioP2;P2;SDS_P1;SDS_P2;PMS_P1;PMS_P2;Temp;Humidity;BMP_temperature;BMP_pressure;BME280_temperature;BME280_humidity;BME280_pressure;Samples;Min_cycle;Max_cycle;Signal;HPM_P1;HPM_P2
2022/01/27 00:02:25;;;;;;;22.38;10.68;;;;;;;1.39;100.00;99911.88;5116536;28;20078;-78
2022/01/27 00:05:06;;;;;;;28.90;11.80;;;;;;;1.39;100.00;99917.19;5116381;28;20446;-79
2022/01/27 00:07:34;;;;;;;29.38;12.48;;;;;;;1.26;100.00;99913.84;5116363;28;20092;-79
2022/01/27 00:10:14;;;;;;;23.27;10.93;;;;;;;1.30;100.00;99905.78;5115861;28;20108;-78
2022/01/27 00:12:43;;;;;;;22.85;10.70;;;;;;;1.32;100.00;99905.75;5116884;28;20048;-79
2022/01/27 00:15:12;;;;;;;24.67;12.07;;;;;;;1.28;100.00;99907.59;5116172;28;20127;-78
2022/01/27 00:17:44;;;;;;;24.70;11.48;;;;;;;1.26;100.00;99901.44;5098156;28;20081;-79
2022/01/27 00:20:13;;;;;;;25.50;11.30;;;;;;;1.28;100.00;99906.72;5116160;28;20055;-78
2022/01/27 00:22:42;;;;;;;21.90;11.55;;;;;;;1.18;100.00;99905.13;5116025;28;20035;-78
2022/01/27 00:25:13;;;;;;;23.23;11.23;;;;;;;1.23;100.00;99909.47;5115769;28;20453;-78
2022/01/27 00:27:41;;;;;;;25.67;11.70;;;;;;;1.24;100.00;99905.00;5117537;28;20036;-78
2022/01/27 00:30:10;;;;;;;20.60;10.80;;;;;;;1.22;100.00;99899.69;5115976;28;20480;-78
2022/01/27 00:32:37;;;;;;;22.52;11.75;;;;;;;1.25;100.00;99907.66;5115858;28;20400;-78
2022/01/27 00:35:06;;;;;;;24.50;11.48;;;;;;;1.16;100.00;99907.78;5115768;28;20047;-79
2022/01/27 00:37:34;;;;;;;20.42;10.80;;;;;;;1.20;100.00;99901.50;5115551;28;20054;-79
2022/01/27 00:40:02;;;;;;;23.67;11.50;;;;;;;1.20;100.00;99898.00;5115285;28;20114;-77
2022/01/27 00:42:31;;;;;;;24.42;11.88;;;;;;;1.20;100.00;99903.31;5115695;28;20043;-77
2022/01/27 00:44:59;;;;;;;22.38;11.15;;;;;;;1.22;100.00;99904.16;5097730;28;20058;-78
2022/01/27 00:47:26;;;;;;;22.98;11.20;;;;;;;1.14;100.00;99896.31;5115702;28;20043;-78
2022/01/27 00:49:54;;;;;;;22.88;11.57;;;;;;;1.21;100.00;99894.44;5097017;28;20438;-78
2022/01/27 00:52:28;;;;;;;22.08;10.80;;;;;;;1.22;100.00;99902.38;5115518;28;20067;-78
2022/01/27 00:54:56;;;;;;;19.92;10.55;;;;;;;1.31;100.00;99904.00;5115135;28;20043;-78
2022/01/27 00:57:36;;;;;;;19.23;9.82;;;;;;;1.20;100.00;99892.66;5115491;28;20051;-78
2022/01/27 01:00:08;;;;;;;21.63;10.45;;;;;;;1.17;100.00;99896.25;5115538;28;20503;-79
2022/01/27 01:02:44;;;;;;;19.92;10.40;;;;;;;1.10;100.00;99897.25;5115191;28;20130;-79
2022/01/27 01:05:27;;;;;;;;;;;;;;;1.15;100.00;99884.75;5116674;28;20054;-78
2022/01/27 01:07:58;;;;;;;17.45;8.95;;;;;;;1.22;100.00;99890.84;5115777;28;19919;-78
2022/01/27 01:16:03;;;;;;;23.65;11.20;;;;;;;1.15;100.00;99882.09;5115500;28;20047;-77
2022/01/27 01:18:43;;;;;;;24.40;10.95;;;;;;;1.07;100.00;99884.00;5114992;28;20044;-78
2022/01/27 01:21:46;;;;;;;22.35;10.93;;;;;;;1.13;100.00;99884.78;5096665;28;20117;-78
2022/01/27 01:29:55;;;;;;;21.40;10.45;;;;;;;1.14;100.00;99885.66;5114510;28;20047;-79
2022/01/27 01:32:38;;;;;;;19.02;9.75;;;;;;;1.16;100.00;99889.16;5114672;28;20043;-78
2022/01/27 01:35:08;;;;;;;18.90;9.38;;;;;;;1.14;100.00;99891.88;5114684;28;20039;-78
2022/01/27 01:37:39;;;;;;;20.02;10.35;;;;;;;1.09;100.00;99895.50;5114015;28;20051;-78
2022/01/27 01:40:08;;;;;;;19.95;10.20;;;;;;;1.08;100.00;99893.75;5114433;28;20101;-80
2022/01/27 01:42:35;;;;;;;18.75;10.40;;;;;;;1.03;100.00;99892.94;5114416;28;20047;-81
2022/01/27 01:45:04;;;;;;;19.20;9.77;;;;;;;0.91;100.00;99886.94;5114556;28;20492;-80
2022/01/27 01:47:33;;;;;;;19.58;10.07;;;;;;;0.98;100.00;99893.91;5114308;28;20044;-81
2022/01/27 01:50:00;;;;;;;17.15;9.43;;;;;;;0.96;100.00;99892.16;5114326;28;20043;-79
2022/01/27 01:52:28;;;;;;;19.75;10.38;;;;;;;0.99;100.00;99895.66;5113965;28;20044;-81
2022/01/27 01:54:56;;;;;;;19.42;10.50;;;;;;;1.03;100.00;99896.50;5114395;28;20113;-79
2022/01/27 01:57:24;;;;;;;20.30;10.52;;;;;;;1.01;100.00;99891.19;5114255;28;20047;-79
2022/01/27 01:59:55;;;;;;;18.10;9.68;;;;;;;0.90;100.00;99889.59;5114748;28;20047;-79
2022/01/27 02:02:22;;;;;;;17.80;9.60;;;;;;;1.06;100.00;99887.56;5114078;28;20040;-80
2022/01/27 02:04:51;;;;;;;19.30;9.50;;;;;;;1.08;100.00;99889.31;5114253;28;20465;-80
2022/01/27 02:07:29;;;;;;;17.85;9.88;;;;;;;1.03;100.00;99885.88;5113594;28;20047;-79
2022/01/27 02:10:09;;;;;;;19.17;9.98;;;;;;;1.05;100.00;99886.72;5114802;28;20063;-80
2022/01/27 02:18:08;;;;;;;24.05;11.15;;;;;;;1.06;100.00;99875.16;5114030;28;20043;-80
2022/01/27 02:20:39;;;;;;;20.35;10.60;;;;;;;0.88;100.00;99880.78;5113452;28;20040;-82
2022/01/27 02:23:08;;;;;;;21.27;10.68;;;;;;;0.93;100.00;99877.13;5095859;28;20048;-80
2022/01/27 02:25:36;;;;;;;19.15;10.15;;;;;;;1.06;100.00;99875.16;5113919;28;20050;-80
2022/01/27 02:28:05;;;;;;;19.08;10.05;;;;;;;1.02;100.00;99884.09;5092153;28;20055;-81
2022/01/27 02:30:33;;;;;;;20.10;10.48;;;;;;;1.06;100.00;99882.25;5093362;28;20048;-80
2022/01/27 02:33:01;;;;;;;20.60;10.77;;;;;;;1.00;100.00;99891.19;5093511;28;20059;-80
2022/01/27 02:35:30;;;;;;;19.00;10.15;;;;;;;0.89;100.00;99883.41;5092845;28;20052;-79
2022/01/27 02:38:00;;;;;;;21.75;10.43;;;;;;;0.99;100.00;99885.03;5092911;28;20051;-80
2022/01/27 02:40:35;;;;;;;20.63;11.10;;;;;;;0.94;100.00;99875.34;5093161;28;20063;-79
2022/01/27 02:43:04;;;;;;;18.77;9.90;;;;;;;1.02;100.00;99884.09;5093477;28;20044;-80
2022/01/27 02:45:38;;;;;;;19.90;10.70;;;;;;;1.03;100.00;99877.88;5093292;28;20301;-81
2022/01/27 02:48:06;;;;;;;20.13;9.90;;;;;;;0.99;100.00;99884.13;5093455;28;20071;-80
2022/01/27 02:50:34;;;;;;;20.58;10.45;;;;;;;1.09;100.00;99872.44;5092602;28;20117;-80
2022/01/27 02:53:03;;;;;;;19.23;9.70;;;;;;;1.08;100.00;99868.03;5092710;28;20048;-80
2022/01/27 02:55:30;;;;;;;19.88;9.95;;;;;;;1.09;100.00;99871.56;5092979;28;20044;-81
2022/01/27 02:57:59;;;;;;;19.20;9.95;;;;;;;0.96;100.00;99873.53;5075131;28;20052;-80
2022/01/27 03:00:26;;;;;;;18.98;9.90;;;;;;;1.11;100.00;99877.72;5093093;28;20401;-80
2022/01/27 03:02:54;;;;;;;19.77;10.30;;;;;;;1.17;100.00;99876.75;5093058;28;20408;-79
2022/01/27 03:05:22;;;;;;;21.23;10.15;;;;;;;1.09;100.00;99872.44;5092827;28;20044;-81
2022/01/27 03:07:49;;;;;;;21.45;10.43;;;;;;;1.05;100.00;99867.19;5093148;28;20044;-79
2022/01/27 03:10:19;;;;;;;22.30;10.15;;;;;;;0.98;100.00;99872.63;5093173;28;20048;-80
2022/01/27 03:12:48;;;;;;;24.52;11.70;;;;;;;1.08;100.00;99865.38;5075012;28;20040;-80
2022/01/27 03:15:17;;;;;;;23.40;11.50;;;;;;;1.13;100.00;99871.50;5093734;28;20075;-80
2022/01/27 03:17:45;;;;;;;22.13;11.82;;;;;;;1.03;100.00;99869.91;5095863;28;20036;-79
2022/01/27 03:20:13;;;;;;;21.73;10.57;;;;;;;1.00;100.00;99869.91;5113044;27;20051;-80
2022/01/27 03:22:40;;;;;;;22.88;11.00;;;;;;;1.01;100.00;99864.59;5113268;27;20127;-80
2022/01/27 03:25:09;;;;;;;24.88;12.00;;;;;;;1.06;100.00;99871.59;5112132;28;20071;-80
2022/01/27 03:27:44;;;;;;;23.50;11.50;;;;;;;1.13;100.00;99871.50;5109840;27;20100;-79
2022/01/27 03:30:13;;;;;;;21.33;10.73;;;;;;;0.99;100.00;99870.81;5094468;28;20047;-80
2022/01/27 03:32:40;;;;;;;23.30;11.55;;;;;;;0.92;100.00;99861.19;5092042;28;20059;-79
2022/01/27 03:35:08;;;;;;;20.13;10.63;;;;;;;1.08;100.00;99857.41;5092991;28;20036;-80
2022/01/27 03:37:36;;;;;;;20.42;10.50;;;;;;;0.97;100.00;99864.66;5092554;28;20036;-81
2022/01/27 03:40:06;;;;;;;22.08;11.07;;;;;;;1.04;100.00;99852.13;5093274;28;20082;-80
2022/01/27 03:42:39;;;;;;;21.33;10.80;;;;;;;1.10;100.00;99860.91;5092542;28;20126;-80
2022/01/27 03:45:10;;;;;;;23.20;11.70;;;;;;;1.07;100.00;99858.28;5093755;28;20044;-81
2022/01/27 03:47:37;;;;;;;23.17;11.10;;;;;;;1.11;100.00;99853.78;5096045;28;20493;-80
2022/01/27 03:50:05;;;;;;;22.35;11.52;;;;;;;1.08;100.00;99852.06;5096321;28;20036;-80
2022/01/27 03:52:33;;;;;;;23.08;12.32;;;;;;;1.09;100.00;99855.59;5096132;28;20071;-79
2022/01/27 03:55:00;;;;;;;20.83;11.20;;;;;;;1.08;100.00;99857.41;5096554;28;20048;-80
2022/01/27 03:57:28;;;;;;;22.58;11.35;;;;;;;0.99;100.00;99858.41;5096241;28;20043;-81
2022/01/27 03:59:55;;;;;;;23.80;12.10;;;;;;;0.97;100.00;99857.56;5096144;28;20443;-80
2022/01/27 04:02:24;;;;;;;24.23;11.68;;;;;;;1.00;100.00;99859.28;5095506;28;20048;-80
2022/01/27 04:04:52;;;;;;;26.52;12.95;;;;;;;1.08;100.00;99851.19;5095675;28;20484;-80
2022/01/27 04:07:20;;;;;;;24.15;11.55;;;;;;;1.06;100.00;99853.00;5077776;28;20412;-80
2022/01/27 04:09:47;;;;;;;23.63;11.30;;;;;;;1.11;100.00;99840.47;5096105;28;20131;-80
2022/01/27 04:12:14;;;;;;;22.38;11.70;;;;;;;1.11;100.00;99835.16;5095934;28;20043;-81
2022/01/27 04:14:43;;;;;;;22.90;10.88;;;;;;;1.13;100.00;99838.66;5095715;28;20054;-80
2022/01/27 04:17:10;;;;;;;25.63;12.15;;;;;;;0.94;100.00;99839.00;5095349;28;20507;-80
2022/01/27 04:19:39;;;;;;;21.58;11.20;;;;;;;1.05;100.00;99830.84;5095777;28;20043;-80
2022/01/27 04:22:07;;;;;;;22.13;11.38;;;;;;;1.10;100.00;99830.75;5095390;28;20048;-80
2022/01/27 04:24:35;;;;;;;21.40;11.20;;;;;;;1.07;100.00;99837.00;5095668;28;20051;-80
2022/01/27 04:27:06;;;;;;;23.40;11.27;;;;;;;1.08;100.00;99829.91;5095675;28;20127;-80
2022/01/27 04:29:37;;;;;;;22.75;11.82;;;;;;;1.10;100.00;99833.41;5095652;28;20040;-80
2022/01/27 04:32:08;;;;;;;28.05;14.15;;;;;;;1.02;100.00;99833.56;5095289;28;20128;-80
2022/01/27 04:34:39;;;;;;;31.40;17.00;;;;;;;1.11;100.00;99825.41;5096333;28;20052;-80
2022/01/27 04:37:10;;;;;;;45.72;24.05;;;;;;;1.00;100.00;99827.34;5096613;28;20105;-80
2022/01/27 04:39:44;;;;;;;57.03;27.88;;;;;;;1.04;100.00;99818.44;5096070;28;20063;-80
2022/01/27 04:42:17;;;;;;;67.45;32.10;;;;;;;0.94;100.00;99824.81;5095153;28;20039;-81
2022/01/27 04:44:51;;;;;;;63.67;30.45;;;;;;;1.12;100.00;99821.84;5095384;28;20420;-80
2022/01/27 04:47:25;;;;;;;73.82;31.38;;;;;;;1.06;100.00;99821.06;5095334;28;20067;-80
2022/01/27 04:49:55;;;;;;;53.10;24.92;;;;;;;1.06;100.00;99826.38;5096286;28;20092;-81
2022/01/27 04:52:26;;;;;;;60.97;28.20;;;;;;;1.04;100.00;99828.19;5096533;28;20127;-81
2022/01/27 04:55:01;;;;;;;50.75;24.85;;;;;;;1.07;100.00;99826.38;5077038;28;20051;-81
2022/01/27 04:57:29;;;;;;;52.30;24.88;;;;;;;1.01;100.00;99826.44;5095004;28;20040;-80
2022/01/27 04:59:57;;;;;;;45.65;26.40;;;;;;;1.06;100.00;99827.28;5094508;28;20069;-80
2022/01/27 05:02:33;;;;;;;39.13;17.88;;;;;;;0.99;100.00;99820.28;5094674;28;20400;-80
2022/01/27 05:05:01;;;;;;;34.20;15.77;;;;;;;1.10;100.00;99822.75;5096411;28;20126;-79
2022/01/27 05:07:30;;;;;;;28.73;13.65;;;;;;;1.04;100.00;99814.91;5094698;28;20040;-80
2022/01/27 05:10:02;;;;;;;23.80;12.48;;;;;;;1.06;100.00;99819.28;5094653;28;20046;-80
2022/01/27 05:12:36;;;;;;;25.00;11.73;;;;;;;0.94;100.00;99808.84;5076637;28;20048;-80
2022/01/27 05:15:04;;;;;;;27.95;13.23;;;;;;;1.00;100.00;99812.28;5095758;28;20054;-82
2022/01/27 05:17:32;;;;;;;27.17;12.48;;;;;;;1.05;100.00;99820.19;5094729;28;20044;-80
2022/01/27 05:20:00;;;;;;;27.02;12.95;;;;;;;1.02;100.00;99820.25;5094498;28;20051;-79
2022/01/27 05:22:27;;;;;;;29.65;13.30;;;;;;;1.02;100.00;99814.94;5094300;28;20090;-79
2022/01/27 05:24:56;;;;;;;28.55;13.35;;;;;;;0.97;100.00;99819.44;5094369;28;20040;-82
2022/01/27 05:27:24;;;;;;;26.95;12.45;;;;;;;1.01;100.00;99826.44;5094186;28;20039;-81
2022/01/27 05:29:52;;;;;;;25.88;12.52;;;;;;;1.03;100.00;99816.69;5093904;28;20040;-80
2022/01/27 05:32:20;;;;;;;27.48;12.80;;;;;;;0.90;100.00;99820.44;5094289;28;20370;-81
2022/01/27 05:34:48;;;;;;;28.20;11.13;;;;;;;1.01;100.00;99814.03;5075866;28;20059;-80
2022/01/27 05:37:15;;;;;;;29.23;12.68;;;;;;;1.01;100.00;99822.03;5090455;28;20051;-81
2022/01/27 05:39:43;;;;;;;28.20;12.35;;;;;;;1.02;100.00;99814.94;5090400;28;20060;-80
2022/01/27 05:42:12;;;;;;;25.42;12.35;;;;;;;0.90;100.00;99809.81;5090192;28;20040;-78
2022/01/27 05:44:39;;;;;;;27.15;12.05;;;;;;;0.97;100.00;99812.34;5090160;28;20051;-80
2022/01/27 05:47:07;;;;;;;26.70;11.55;;;;;;;0.90;100.00;99807.16;5090424;28;20044;-75
2022/01/27 05:49:34;;;;;;;26.75;12.00;;;;;;;0.86;100.00;99809.00;5090636;28;20047;-75
2022/01/27 05:52:02;;;;;;;30.58;12.45;;;;;;;0.90;100.00;99809.81;5089961;28;20051;-75
2022/01/27 05:54:31;;;;;;;29.58;12.88;;;;;;;0.93;100.00;99808.00;5090283;28;20044;-75
2022/01/27 05:56:59;;;;;;;28.13;12.88;;;;;;;1.08;100.00;99820.16;5090362;28;20044;-75
2022/01/27 05:59:28;;;;;;;28.92;13.80;;;;;;;0.89;100.00;99810.72;5089977;28;20055;-76
2022/01/27 06:01:55;;;;;;;33.72;13.68;;;;;;;0.96;100.00;99820.34;5090000;28;20052;-75
2022/01/27 06:04:23;;;;;;;34.88;14.23;;;;;;;1.01;100.00;99822.03;5089967;28;20059;-76
2022/01/27 06:06:53;;;;;;;32.75;14.50;;;;;;;0.87;100.00;99808.09;5104618;28;20051;-76
2022/01/27 06:09:20;;;;;;;31.30;13.98;;;;;;;0.85;100.00;99809.91;5109902;27;20400;-76
2022/01/27 06:11:48;;;;;;;35.15;14.52;;;;;;;0.85;100.00;99808.09;5110177;28;20039;-76
2022/01/27 06:14:16;;;;;;;35.08;15.52;;;;;;;1.03;100.00;99806.06;5110247;27;20403;-76
2022/01/27 06:16:45;;;;;;;30.40;14.52;;;;;;;0.98;100.00;99798.13;5109745;27;20051;-76
2022/01/27 06:19:13;;;;;;;30.55;13.27;;;;;;;0.91;100.00;99788.53;5113389;27;20043;-82
2022/01/27 06:21:43;;;;;;;37.72;15.80;;;;;;;0.88;100.00;99791.25;5113530;27;20047;-80
2022/01/27 06:24:11;;;;;;;28.83;13.20;;;;;;;0.92;100.00;99786.72;5113690;28;20043;-79
2022/01/27 06:26:38;;;;;;;29.98;13.50;;;;;;;0.91;100.00;99782.31;5113903;27;20047;-80
2022/01/27 06:29:06;;;;;;;32.58;13.77;;;;;;;0.94;100.00;99790.22;5098327;27;20040;-79
2022/01/27 06:31:34;;;;;;;34.33;14.10;;;;;;;0.88;100.00;99795.66;5093268;28;20051;-81
2022/01/27 06:34:02;;;;;;;30.00;13.25;;;;;;;0.78;100.00;99789.63;5093110;28;20048;-80
2022/01/27 06:36:30;;;;;;;30.52;12.75;;;;;;;0.83;100.00;99788.63;5093119;28;20044;-80
2022/01/27 06:38:58;;;;;;;30.17;13.77;;;;;;;0.77;100.00;99780.78;5093055;28;20131;-80
2022/01/27 06:41:25;;;;;;;32.00;13.25;;;;;;;0.80;100.00;99778.06;5092925;28;20047;-79
2022/01/27 06:43:54;;;;;;;29.95;12.98;;;;;;;0.86;100.00;99769.97;5093191;28;20052;-80
2022/01/27 06:46:21;;;;;;;30.27;14.63;;;;;;;0.75;100.00;99771.06;5093199;28;20046;-80
2022/01/27 06:48:49;;;;;;;36.28;15.02;;;;;;;0.89;100.00;99768.16;5093204;28;20059;-81
2022/01/27 06:51:18;;;;;;;32.30;14.45;;;;;;;0.92;100.00;99770.75;5075125;28;20052;-82
2022/01/27 06:53:46;;;;;;;32.40;15.23;;;;;;;0.86;100.00;99775.28;5092977;28;20089;-82
2022/01/27 06:56:13;;;;;;;37.05;16.83;;;;;;;0.86;100.00;99771.78;5092949;28;20044;-82
2022/01/27 06:58:41;;;;;;;31.42;14.48;;;;;;;0.85;100.00;99775.34;5092823;28;20103;-81
2022/01/27 07:01:08;;;;;;;31.30;14.13;;;;;;;0.83;100.00;99764.72;5092950;28;20048;-82
2022/01/27 07:03:36;;;;;;;32.85;15.15;;;;;;;0.80;100.00;99770.09;5092880;28;20044;-82
2022/01/27 07:06:04;;;;;;;36.17;16.65;;;;;;;0.88;100.00;99766.41;5092960;28;20059;-83
2022/01/27 07:08:33;;;;;;;51.67;21.92;;;;;;;0.91;100.00;99759.25;5075016;28;20055;-82
2022/01/27 07:11:00;;;;;;;59.78;24.55;;;;;;;0.89;100.00;99754.84;5092541;28;20048;-82
2022/01/27 07:13:28;;;;;;;78.20;30.67;;;;;;;0.92;100.00;99744.16;5075025;28;20056;-81
2022/01/27 07:15:57;;;;;;;115.45;31.02;;;;;;;0.72;100.00;99743.63;5092894;28;20040;-81
2022/01/27 07:18:24;;;;;;;259.60;57.03;;;;;;;0.76;100.00;99747.13;5074682;28;20070;-83
2022/01/27 07:20:51;;;;;;;110.60;36.40;;;;;;;0.75;100.00;99737.38;5093892;28;20047;-83
2022/01/27 07:23:20;;;;;;;39.38;18.20;;;;;;;0.82;100.00;99748.78;5078491;28;20078;-80
2022/01/27 07:25:48;;;;;;;34.95;16.20;;;;;;;0.98;100.00;99749.38;5096449;28;20048;-80
2022/01/27 07:28:16;;;;;;;31.63;13.20;;;;;;;0.85;100.00;99744.28;5096462;28;20499;-84
2022/01/27 07:30:44;;;;;;;25.98;13.52;;;;;;;0.92;100.00;99741.50;5098915;28;20050;-80
2022/01/27 07:33:11;;;;;;;32.05;14.18;;;;;;;1.00;100.00;99739.56;5097300;28;20062;-80
2022/01/27 07:35:39;;;;;;;30.85;13.68;;;;;;;0.89;100.00;99730.94;5115650;28;20043;-82
2022/01/27 07:38:06;;;;;;;29.42;14.45;;;;;;;0.87;100.00;99733.63;5115345;28;20091;-78
2022/01/27 07:40:35;;;;;;;39.35;17.73;;;;;;;0.91;100.00;99731.78;5117662;28;20131;-79
2022/01/27 07:43:04;;;;;;;60.75;24.23;;;;;;;0.96;100.00;99725.47;5115312;28;20485;-79
2022/01/27 07:45:31;;;;;;;32.20;15.75;;;;;;;0.94;100.00;99724.63;5115285;28;20431;-78
2022/01/27 07:47:59;;;;;;;32.80;14.43;;;;;;;0.71;100.00;99722.38;5115444;28;20051;-80
2022/01/27 07:50:29;;;;;;;32.45;14.57;;;;;;;0.94;100.00;99723.72;5115125;28;20391;-79
2022/01/27 07:52:57;;;;;;;31.50;14.43;;;;;;;0.84;100.00;99720.38;5118552;28;20043;-80
2022/01/27 07:55:25;;;;;;;35.20;15.50;;;;;;;0.84;100.00;99712.41;5114173;28;20670;-78
2022/01/27 07:57:52;;;;;;;36.33;16.52;;;;;;;1.01;100.00;99701.44;5111769;28;20044;-82
2022/01/27 08:00:22;;;;;;;59.15;24.40;;;;;;;0.89;100.00;99707.88;5115013;28;20036;-80
2022/01/27 08:02:49;;;;;;;37.75;16.85;;;;;;;0.94;100.00;99703.34;5114837;28;20039;-78
2022/01/27 08:05:17;;;;;;;30.73;14.95;;;;;;;0.99;100.00;99700.56;5114880;28;20044;-80
2022/01/27 08:07:44;;;;;;;34.20;14.90;;;;;;;0.98;100.00;99706.81;5114121;28;20050;-76
2022/01/27 08:10:12;;;;;;;34.55;15.60;;;;;;;1.06;100.00;99712.00;5096258;28;20306;-80
2022/01/27 08:12:41;;;;;;;36.50;16.55;;;;;;;0.96;100.00;99704.19;5114502;28;20051;-78
2022/01/27 08:15:11;;;;;;;38.45;17.75;;;;;;;0.90;100.00;99711.41;5096490;28;20043;-83
2022/01/27 08:17:40;;;;;;;47.50;20.00;;;;;;;0.99;100.00;99706.78;5114596;28;20071;-81
2022/01/27 08:20:09;;;;;;;50.15;23.77;;;;;;;0.99;100.00;99720.09;5096344;28;20044;-78
2022/01/27 08:22:43;;;;;;;36.97;16.60;;;;;;;1.00;100.00;99721.84;5114307;28;20069;-79
2022/01/27 08:25:10;;;;;;;44.05;20.77;;;;;;;0.88;100.00;99721.19;5115531;28;20035;-80
2022/01/27 08:27:40;;;;;;;58.97;26.70;;;;;;;0.96;100.00;99725.47;5114379;28;20040;-79
2022/01/27 08:30:09;;;;;;;45.28;19.27;;;;;;;0.85;100.00;99720.34;5114180;28;20111;-79
2022/01/27 08:32:48;;;;;;;39.53;16.60;;;;;;;0.87;100.00;99723.00;5113965;28;20455;-78
2022/01/27 08:35:19;;;;;;;41.10;16.55;;;;;;;0.91;100.00;99718.47;5111527;28;20046;-80
2022/01/27 08:37:47;;;;;;;38.53;16.52;;;;;;;1.00;100.00;99711.22;5112624;28;20066;-78
2022/01/27 08:40:16;;;;;;;41.05;17.35;;;;;;;1.04;100.00;99712.03;5111482;28;20047;-79
2022/01/27 08:42:44;;;;;;;35.83;15.60;;;;;;;0.91;100.00;99716.72;5111826;28;20047;-81
2022/01/27 08:45:13;;;;;;;39.55;17.05;;;;;;;0.84;100.00;99699.97;5093752;28;20055;-79
2022/01/27 08:47:41;;;;;;;38.45;17.65;;;;;;;0.95;100.00;99702.44;5112086;28;20488;-78
2022/01/27 08:50:11;;;;;;;36.90;17.15;;;;;;;1.01;100.00;99701.44;5112036;28;20097;-82
2022/01/27 08:52:41;;;;;;;38.72;17.73;;;;;;;1.11;100.00;99702.13;5111149;28;20130;-79
2022/01/27 08:55:09;;;;;;;36.15;17.63;;;;;;;1.03;100.00;99707.63;5112024;28;20047;-77
2022/01/27 08:57:37;;;;;;;34.58;15.85;;;;;;;1.07;100.00;99697.78;5112020;28;20054;-78
2022/01/27 09:00:07;;;;;;;39.92;16.90;;;;;;;1.03;100.00;99699.66;5111627;28;20420;-82
2022/01/27 09:02:35;;;;;;;43.58;19.52;;;;;;;1.01;100.00;99696.09;5111560;28;20045;-81
2022/01/27 09:05:02;;;;;;;45.65;20.35;;;;;;;1.00;100.00;99697.00;5111421;28;20104;-77
2022/01/27 09:07:30;;;;;;;38.30;18.33;;;;;;;1.04;100.00;99687.19;5111560;28;20044;-78
2022/01/27 09:09:59;;;;;;;41.30;17.33;;;;;;;1.07;100.00;99690.69;5111751;28;20066;-78
2022/01/27 09:12:26;;;;;;;52.47;22.95;;;;;;;0.94;100.00;99686.50;5111872;28;20492;-84
2022/01/27 09:14:54;;;;;;;39.10;16.42;;;;;;;1.03;100.00;99683.69;5113613;28;20097;-78
2022/01/27 09:17:25;;;;;;;42.15;18.42;;;;;;;1.08;100.00;99686.22;5111111;28;20047;-79
2022/01/27 09:19:54;;;;;;;34.33;16.15;;;;;;;1.18;100.00;99684.28;5112322;28;20408;-83
2022/01/27 09:22:22;;;;;;;36.70;16.27;;;;;;;1.11;100.00;99676.41;5111053;28;20069;-78
2022/01/27 09:24:55;;;;;;;38.40;15.88;;;;;;;1.07;100.00;99680.06;5111432;28;20523;-80
2022/01/27 09:27:24;;;;;;;34.35;16.27;;;;;;;1.10;100.00;99671.13;5111745;28;20583;-78
2022/01/27 09:29:53;;;;;;;33.08;15.60;;;;;;;1.13;100.00;99668.38;5110916;28;20050;-82
2022/01/27 09:32:20;;;;;;;32.65;15.00;;;;;;;1.13;100.00;99655.97;5111217;28;20039;-78
2022/01/27 09:34:48;;;;;;;33.10;15.07;;;;;;;1.03;100.00;99657.09;5110818;28;20058;-78
2022/01/27 09:37:16;;;;;;;38.72;19.00;;;;;;;0.95;100.00;99659.00;5111188;28;20051;-83
2022/01/27 09:39:44;;;;;;;46.72;21.52;;;;;;;0.88;100.00;99658.25;5111257;28;20083;-79
2022/01/27 09:42:13;;;;;;;36.85;16.83;;;;;;;0.93;100.00;99653.72;5111076;28;20112;-79
2022/01/27 09:44:44;;;;;;;42.30;20.88;;;;;;;0.88;100.00;99650.28;5110165;28;20130;-78
2022/01/27 09:47:15;;;;;;;39.33;18.73;;;;;;;0.94;100.00;99636.84;5111794;28;20051;-83
2022/01/27 09:49:50;;;;;;;39.42;19.35;;;;;;;0.96;100.00;99635.03;5112057;28;20051;-78
2022/01/27 09:52:17;;;;;;;43.88;21.38;;;;;;;0.98;100.00;99624.34;5109754;28;20044;-81
2022/01/27 09:54:46;;;;;;;36.85;18.17;;;;;;;0.89;100.00;99620.13;5110097;28;20052;-82
2022/01/27 09:57:16;;;;;;;42.90;19.60;;;;;;;0.95;100.00;99621.75;5110399;28;20043;-79
2022/01/27 09:59:46;;;;;;;40.25;18.90;;;;;;;1.02;100.00;99618.09;5113055;27;20100;-86
2022/01/27 10:02:16;;;;;;;39.83;19.23;;;;;;;0.98;100.00;99630.56;5111567;27;20043;-82
2022/01/27 10:04:48;;;;;;;36.33;19.15;;;;;;;1.06;100.00;99609.13;5109750;27;20051;-78
2022/01/27 10:07:17;;;;;;;42.25;20.98;;;;;;;0.89;100.00;99614.81;5110759;27;20054;-80
2022/01/27 10:09:59;;;;;;;50.08;20.58;;;;;;;0.92;100.00;99612.06;5110838;27;20047;-80
2022/01/27 10:12:29;;;;;;;42.83;19.58;;;;;;;0.88;100.00;99610.38;5110570;28;20444;-78
2022/01/27 10:15:03;;;;;;;53.72;26.77;;;;;;;0.95;100.00;99603.13;5110578;27;20047;-79
2022/01/27 10:17:34;;;;;;;41.13;20.15;;;;;;;0.95;100.00;99597.81;5112386;27;20040;-78
2022/01/27 10:20:02;;;;;;;37.30;18.02;;;;;;;1.02;100.00;99594.16;5110603;27;20120;-80
2022/01/27 10:22:29;;;;;;;44.67;21.35;;;;;;;1.08;100.00;99591.34;5109739;27;20044;-78
2022/01/27 10:25:02;;;;;;;41.17;19.80;;;;;;;1.01;100.00;99579.06;5109941;28;20078;-78
2022/01/27 10:27:34;;;;;;;45.88;21.90;;;;;;;1.06;100.00;99582.53;5108263;28;20412;-80
2022/01/27 10:32:53;;;;;;;45.90;20.48;;;;;;;1.08;100.00;99588.69;5110789;28;20493;-78
2022/01/27 10:35:23;;;;;;;56.55;26.52;;;;;;;0.99;100.00;99579.13;5110171;28;20454;-84
2022/01/27 10:37:58;;;;;;;45.05;21.10;;;;;;;1.15;100.00;99581.44;5110583;28;20082;-83
2022/01/27 10:40:28;;;;;;;42.78;21.00;;;;;;;1.03;100.00;99582.59;5113818;28;20482;-84
2022/01/27 10:43:14;;;;;;;43.88;21.23;;;;;;;1.01;100.00;99569.31;5110625;28;20831;-82
2022/01/27 10:46:06;;;;;;;45.17;21.33;;;;;;;1.11;100.00;99561.13;5109150;28;20051;-82
2022/01/27 10:48:35;;;;;;;48.95;22.00;;;;;;;1.17;100.00;99562.78;5108028;28;20100;-78
2022/01/27 10:51:08;;;;;;;52.90;24.27;;;;;;;1.12;100.00;99565.53;5109117;28;20058;-80
2022/01/27 10:54:04;;;;;;;47.28;21.27;;;;;;;1.08;100.00;99562.09;5110630;28;20051;-77
2022/01/27 10:56:34;;;;;;;46.78;22.00;;;;;;;1.10;100.00;99546.97;5097090;28;20083;-79
2022/01/27 10:59:04;;;;;;;52.25;24.92;;;;;;;1.14;100.00;99547.75;5113721;28;20123;-80
2022/01/27 11:01:34;;;;;;;65.07;28.23;;;;;;;1.18;100.00;99543.25;5113766;28;20051;-77
2022/01/27 11:04:04;;;;;;;56.67;26.40;;;;;;;1.01;100.00;99544.47;5114062;28;20085;-79
2022/01/27 11:06:34;;;;;;;54.90;26.30;;;;;;;1.01;100.00;99532.06;5114450;28;20046;-81
2022/01/27 11:09:07;;;;;;;54.05;25.55;;;;;;;1.04;100.00;99525.81;5114194;28;20142;-80
2022/01/27 11:11:35;;;;;;;54.33;24.05;;;;;;;1.11;100.00;99521.22;5115979;28;20047;-84
2022/01/27 11:14:04;;;;;;;58.95;27.38;;;;;;;1.12;100.00;99523.88;5114368;28;20563;-80
2022/01/27 11:16:37;;;;;;;70.15;30.52;;;;;;;1.12;100.00;99515.88;5113832;28;20412;-80
2022/01/27 11:19:21;;;;;;;59.25;26.73;;;;;;;1.14;100.00;99508.75;5115616;28;20047;-78
2022/01/27 11:21:55;;;;;;;65.55;27.40;;;;;;;1.23;100.00;99514.75;5115261;28;20044;-81
2022/01/27 11:24:28;;;;;;;59.35;26.20;;;;;;;1.20;100.00;99507.69;5115171;28;20055;-78
2022/01/27 11:26:58;;;;;;;67.13;28.55;;;;;;;1.09;100.00;99504.41;5115473;28;20051;-79
2022/01/27 11:29:27;;;;;;;63.08;28.42;;;;;;;1.30;100.00;99497.72;5104103;28;20044;-78
2022/01/27 11:32:18;;;;;;;73.20;32.30;;;;;;;1.18;100.00;99490.03;5113321;28;20511;-79
2022/01/27 11:34:50;;;;;;;72.70;31.45;;;;;;;1.16;100.00;99490.06;5113538;28;20051;-79
2022/01/27 11:37:30;;;;;;;68.70;30.92;;;;;;;1.19;100.00;99473.16;5116130;28;20054;-78
2022/01/27 11:40:03;;;;;;;81.10;32.63;;;;;;;1.16;100.00;99482.09;5113097;28;20148;-82
2022/01/27 11:42:59;;;;;;;73.20;29.92;;;;;;;1.20;100.00;99467.78;5114700;28;20054;-77
2022/01/27 11:45:28;;;;;;;70.85;30.60;;;;;;;1.22;100.00;99475.75;5111948;28;20055;-80
2022/01/27 11:48:01;;;;;;;78.68;34.47;;;;;;;1.19;100.00;99465.19;5113296;28;20044;-82
2022/01/27 11:50:35;;;;;;;71.65;31.23;;;;;;;1.25;100.00;99473.00;5114705;28;20043;-82